Terminal Aerodrome Forecast
Issued by NWS

Home | Current Version | Previous Version | Text Only | Print | Product List | Glossary On
Versions: 1 2 3 4 5 6 7 8 9 10 11 12 13
000
FTUS45 KRIW 250500
TAFLND
TAF
KLND 250533Z 2506/2606 VRB06KT P6SM SCT050 OVC090
     FM251100 02008KT 5SM -SN OVC030
     FM251400 02007KT 1/2SM SN OVC004
     FM260400 34006KT 2SM -SN OVC011=

USA.gov is the U.S. government's official web portal to all federal, state and local government web resources and services.